createdAt,value
2018-07-14T00:00:23.868Z,60.49
2018-07-14T00:05:26.039Z,59.22
2018-07-14T00:10:28.151Z,60.34
2018-07-14T00:15:30.374Z,58.83
2018-07-14T00:20:32.512Z,60.07
2018-07-14T00:25:40.315Z,59.33
2018-07-14T00:30:42.540Z,60.53
2018-07-14T00:35:44.675Z,60.83
2018-07-14T00:40:46.904Z,59.57
2018-07-14T00:45:49.048Z,59.29
2018-07-14T00:50:51.155Z,59.59
2018-07-14T00:55:53.331Z,59.82
2018-07-14T01:00:55.491Z,59.24
2018-07-14T01:05:57.620Z,57.97
2018-07-14T01:10:59.746Z,59.42
2018-07-14T01:16:01.940Z,57.95
2018-07-14T01:21:04.106Z,59.00
2018-07-14T01:26:06.327Z,59.53
2018-07-14T01:31:08.508Z,59.02
2018-07-14T01:36:10.677Z,59.75
2018-07-14T01:41:12.816Z,59.19
2018-07-14T01:46:14.953Z,58.50
2018-07-14T01:51:17.087Z,59.09
2018-07-14T01:56:19.261Z,59.95
2018-07-14T02:01:21.383Z,59.35
2018-07-14T02:06:23.510Z,59.72
2018-07-14T02:11:25.619Z,59.57
2018-07-14T02:16:28.034Z,60.05
2018-07-14T02:21:30.224Z,59.95
2018-07-14T02:26:32.362Z,59.64
2018-07-14T02:31:34.771Z,60.05
2018-07-14T02:36:36.904Z,60.66
2018-07-14T02:41:39.069Z,60.90
2018-07-14T02:46:41.216Z,61.02
2018-07-14T02:51:43.335Z,60.86
2018-07-14T02:56:45.446Z,60.68
2018-07-14T03:01:47.586Z,60.82
2018-07-14T03:06:49.728Z,61.21
2018-07-14T03:11:51.879Z,61.06
2018-07-14T03:16:54.046Z,60.63
2018-07-14T03:21:56.176Z,61.05
2018-07-14T03:26:58.305Z,61.61
2018-07-14T03:32:00.448Z,61.01
2018-07-14T03:37:02.562Z,60.45
2018-07-14T03:42:04.779Z,61.01
2018-07-14T03:47:06.897Z,61.06
2018-07-14T03:52:09.087Z,61.02
2018-07-14T03:57:11.232Z,60.80
2018-07-14T04:02:13.384Z,60.86
2018-07-14T04:07:15.536Z,60.60
2018-07-14T04:12:17.686Z,61.16
2018-07-14T04:17:19.859Z,61.26
2018-07-14T04:22:21.989Z,61.24
2018-07-14T04:27:24.123Z,60.75
2018-07-14T04:32:26.244Z,61.13
2018-07-14T04:37:28.379Z,61.05
2018-07-14T04:42:30.619Z,60.69
2018-07-14T04:47:32.695Z,60.82
2018-07-14T04:52:34.888Z,61.30
2018-07-14T04:57:37.015Z,61.45
2018-07-14T05:02:39.125Z,60.85
2018-07-14T05:07:41.251Z,59.50
2018-07-14T05:12:43.376Z,60.83
2018-07-14T05:17:45.542Z,60.33
2018-07-14T05:22:47.705Z,60.14
2018-07-14T05:27:49.823Z,60.05
2018-07-14T05:32:51.945Z,60.35
2018-07-14T05:37:54.095Z,60.49
2018-07-14T05:42:56.259Z,59.63
2018-07-14T05:47:58.385Z,59.59
2018-07-14T05:53:00.613Z,60.77
2018-07-14T05:58:02.806Z,60.35
2018-07-14T06:03:05.418Z,58.76
2018-07-14T06:08:07.695Z,59.51
2018-07-14T06:13:09.881Z,59.91
2018-07-14T06:18:12.105Z,59.38
2018-07-14T06:23:14.346Z,58.64
2018-07-14T06:28:16.525Z,57.42
2018-07-14T06:33:18.678Z,58.21
2018-07-14T06:38:20.828Z,57.42
2018-07-14T06:43:22.952Z,57.88
2018-07-14T06:48:25.092Z,57.74
2018-07-14T06:53:27.240Z,56.96
2018-07-14T06:58:29.423Z,56.38
2018-07-14T07:03:31.560Z,57.69
2018-07-14T07:08:33.863Z,59.08
2018-07-14T07:13:36.073Z,59.28
2018-07-14T07:18:38.226Z,57.64
2018-07-14T07:23:40.484Z,56.92
2018-07-14T07:28:42.621Z,55.35
2018-07-14T07:33:44.790Z,57.28
2018-07-14T07:38:46.943Z,58.35
2018-07-14T07:43:49.164Z,56.38
2018-07-14T07:54:06.496Z,57.51
2018-07-14T07:59:08.736Z,56.65
2018-07-14T08:04:10.847Z,58.46
2018-07-14T08:09:13.009Z,56.73
2018-07-14T08:14:15.144Z,56.35
2018-07-14T08:19:17.309Z,59.54
2018-07-14T08:24:19.464Z,55.77
2018-07-14T08:29:21.702Z,57.66
2018-07-14T08:34:23.883Z,54.72
2018-07-14T08:39:26.077Z,55.39
2018-07-14T08:44:28.241Z,52.91
2018-07-14T08:49:30.446Z,52.10
2018-07-14T08:54:32.693Z,52.82
2018-07-14T08:59:34.967Z,52.83
2018-07-14T09:04:37.233Z,52.13
2018-07-14T09:09:39.476Z,52.50
2018-07-14T09:14:41.770Z,52.93
2018-07-14T09:19:43.954Z,52.70
2018-07-14T09:24:46.158Z,52.27
2018-07-14T09:29:48.343Z,53.92
2018-07-14T09:34:50.619Z,53.41
2018-07-14T09:39:52.797Z,52.05
2018-07-14T09:44:54.974Z,52.15
2018-07-14T09:49:57.141Z,51.53
2018-07-14T09:54:59.300Z,53.46
2018-07-14T10:00:01.546Z,53.85
2018-07-14T10:05:03.802Z,53.24
2018-07-14T10:10:06.115Z,51.67
2018-07-14T10:15:08.500Z,51.21
2018-07-14T10:20:10.790Z,50.99
2018-07-14T10:25:13.113Z,49.98
2018-07-14T10:30:15.239Z,49.65
2018-07-14T10:35:17.422Z,51.26
2018-07-14T10:40:19.575Z,50.92
2018-07-14T10:45:21.792Z,50.38
2018-07-14T10:50:23.947Z,51.04
2018-07-14T10:55:26.164Z,49.81
2018-07-14T11:00:28.341Z,49.72
2018-07-14T11:05:30.559Z,51.10
2018-07-14T11:10:32.719Z,50.90
2018-07-14T11:15:34.931Z,52.26
2018-07-14T11:20:37.115Z,54.37
2018-07-14T11:25:39.285Z,53.24
2018-07-14T11:30:41.462Z,54.82
2018-07-14T11:35:43.654Z,54.36
2018-07-14T11:40:45.853Z,55.18
2018-07-14T11:45:48.039Z,53.74
2018-07-14T11:50:50.250Z,53.93
2018-07-14T11:55:52.422Z,52.29
2018-07-14T12:00:54.646Z,51.25
2018-07-14T12:05:56.779Z,51.83
2018-07-14T12:10:58.943Z,53.69
2018-07-14T12:16:01.155Z,51.45
2018-07-14T12:21:03.386Z,50.47
2018-07-14T12:26:05.587Z,51.13
2018-07-14T12:31:07.768Z,51.87
2018-07-14T12:36:09.969Z,53.00
2018-07-14T12:41:12.326Z,50.48
2018-07-14T12:46:14.511Z,52.34
2018-07-14T12:51:16.726Z,49.60
2018-07-14T12:56:18.878Z,51.24
2018-07-14T13:01:21.071Z,51.63
2018-07-14T13:06:23.304Z,51.34
2018-07-14T13:11:25.465Z,49.71
2018-07-14T13:16:27.641Z,51.72
2018-07-14T13:21:29.808Z,49.81
2018-07-14T13:26:31.980Z,50.43
2018-07-14T13:31:34.421Z,48.91
2018-07-14T13:36:36.628Z,49.73
2018-07-14T13:41:38.814Z,50.00
2018-07-14T13:46:41.005Z,52.17
2018-07-14T13:51:43.183Z,52.32
2018-07-14T13:56:45.366Z,54.64
2018-07-14T14:01:47.563Z,51.85
2018-07-14T14:06:49.712Z,51.25
2018-07-14T14:11:51.932Z,52.71
2018-07-14T14:16:54.239Z,51.37
2018-07-14T14:21:56.482Z,50.70
2018-07-14T14:26:58.745Z,52.26
2018-07-14T14:32:01.023Z,52.73
2018-07-14T14:37:03.250Z,51.48
2018-07-14T14:42:05.404Z,52.06
2018-07-14T14:47:07.611Z,52.58
2018-07-14T14:52:09.783Z,51.80
2018-07-14T14:57:11.982Z,49.54
2018-07-14T15:02:14.172Z,50.21
2018-07-14T15:07:16.382Z,49.96
2018-07-14T15:12:18.580Z,49.44
2018-07-14T15:17:20.831Z,49.94
2018-07-14T15:22:23.050Z,49.59
2018-07-14T15:27:25.299Z,49.83
2018-07-14T15:32:27.481Z,47.98
2018-07-14T15:37:29.633Z,46.83
2018-07-14T15:42:31.794Z,43.28
2018-07-14T15:47:33.975Z,43.87
2018-07-14T15:52:36.304Z,42.58
2018-07-14T15:57:38.517Z,45.25
2018-07-14T16:02:40.758Z,46.30
2018-07-14T16:07:42.948Z,47.67
2018-07-14T16:12:45.135Z,46.46
2018-07-14T16:17:47.376Z,47.53
2018-07-14T16:22:49.569Z,49.44
2018-07-14T16:27:51.743Z,49.14
2018-07-14T16:32:53.932Z,50.10
2018-07-14T16:37:56.121Z,51.32
2018-07-14T16:42:58.730Z,50.44
2018-07-14T16:48:00.945Z,51.03
2018-07-14T16:53:03.170Z,49.46
2018-07-14T16:58:05.811Z,49.19
2018-07-14T17:03:08.024Z,49.67
2018-07-14T17:08:10.566Z,49.90
2018-07-14T17:13:12.746Z,49.34
2018-07-14T17:18:14.951Z,49.50
2018-07-14T17:23:17.220Z,49.16
2018-07-14T17:28:19.385Z,49.47
2018-07-14T17:33:21.600Z,47.26
2018-07-14T17:38:23.774Z,44.58
2018-07-14T17:43:25.988Z,47.15
2018-07-14T17:48:28.542Z,45.09
2018-07-14T17:53:30.760Z,46.46
2018-07-14T17:58:32.975Z,47.22
2018-07-14T18:03:35.135Z,47.82
2018-07-14T18:08:37.326Z,48.40
2018-07-14T18:13:39.511Z,48.94
2018-07-14T18:18:41.714Z,48.84
2018-07-14T18:23:43.987Z,48.74
2018-07-14T18:28:46.222Z,49.54
2018-07-14T18:33:48.448Z,49.09
2018-07-14T18:38:50.654Z,49.63
2018-07-14T18:43:52.920Z,50.78
2018-07-14T18:48:55.145Z,50.97
2018-07-14T18:53:57.394Z,50.88
2018-07-14T18:58:59.580Z,50.75
2018-07-14T19:04:01.795Z,50.85
2018-07-14T19:09:04.916Z,50.67
2018-07-14T19:14:07.146Z,51.00
2018-07-14T19:19:09.344Z,51.01
2018-07-14T19:24:11.608Z,51.41
2018-07-14T19:29:13.980Z,50.47
2018-07-14T19:34:16.188Z,50.93
2018-07-14T19:39:18.409Z,51.31
2018-07-14T19:44:20.643Z,51.62
2018-07-14T19:49:22.850Z,51.19
2018-07-14T19:54:25.156Z,51.60
2018-07-14T19:59:27.368Z,51.77
2018-07-14T20:04:29.591Z,52.12
2018-07-14T20:09:31.888Z,51.89
2018-07-14T20:14:34.088Z,51.91
2018-07-14T20:19:36.340Z,52.30
2018-07-14T20:24:38.566Z,52.35
2018-07-14T20:29:41.055Z,52.29
2018-07-14T20:34:43.331Z,51.93
2018-07-14T20:39:45.712Z,52.69
2018-07-14T20:44:47.924Z,52.40
2018-07-14T20:49:50.125Z,53.64
2018-07-14T20:54:52.296Z,53.05
2018-07-14T20:59:54.479Z,53.55
2018-07-14T21:04:56.662Z,52.72
2018-07-14T21:09:58.850Z,53.15
2018-07-14T21:15:01.074Z,53.07
2018-07-14T21:20:03.296Z,53.32
2018-07-14T21:25:05.814Z,53.28
2018-07-14T21:30:08.000Z,53.14
2018-07-14T21:35:10.185Z,53.23
2018-07-14T21:40:12.436Z,53.62
2018-07-14T21:45:14.587Z,53.58
2018-07-14T21:50:16.787Z,54.36
2018-07-14T21:55:19.037Z,54.16
2018-07-14T22:01:36.894Z,54.17
2018-07-14T22:06:39.096Z,54.05
2018-07-14T22:11:41.454Z,54.91
2018-07-14T22:16:43.617Z,54.47
2018-07-14T22:21:45.783Z,54.56
2018-07-14T22:26:47.979Z,54.81
2018-07-14T22:31:50.223Z,55.15
2018-07-14T22:36:52.415Z,55.57
2018-07-14T22:41:54.574Z,55.72
2018-07-14T22:46:56.759Z,55.12
2018-07-14T22:51:58.972Z,55.50
2018-07-14T22:57:01.207Z,55.42
2018-07-14T23:02:09.448Z,55.47
2018-07-14T23:07:11.644Z,55.60
2018-07-14T23:12:13.840Z,55.65
2018-07-14T23:17:16.002Z,55.79
2018-07-14T23:22:18.155Z,55.57
2018-07-14T23:27:20.397Z,56.28
2018-07-14T23:32:22.647Z,56.03
2018-07-14T23:37:24.855Z,55.71
2018-07-14T23:42:27.011Z,55.78
2018-07-14T23:47:29.164Z,55.72
2018-07-14T23:52:31.304Z,57.24
2018-07-14T23:57:33.435Z,60.42
